createdAt,value
2022-08-14T18:10:56.225Z,943.83
2022-08-14T18:11:58.990Z,943.84
2022-08-14T18:13:05.551Z,943.80
2022-08-14T18:13:51.522Z,943.76
2022-08-14T18:16:31.217Z,943.79
2022-08-14T18:17:40.695Z,943.75
2022-08-14T18:18:43.186Z,943.79
2022-08-14T18:19:41.674Z,943.76
2022-08-14T18:21:42.214Z,943.82
2022-08-14T18:22:56.667Z,943.85
2022-08-14T18:24:29.335Z,943.82
2022-08-14T18:25:19.240Z,943.83
2022-08-14T18:26:35.908Z,943.82
2022-08-14T18:28:16.089Z,943.82
2022-08-14T18:29:14.789Z,943.85
2022-08-14T18:31:42.221Z,943.85
2022-08-14T18:32:47.439Z,943.87
2022-08-14T18:35:11.124Z,943.89
2022-08-14T18:36:46.670Z,943.91
2022-08-14T18:38:25.192Z,943.93
2022-08-14T18:39:34.362Z,943.91
2022-08-14T18:40:34.927Z,943.95
2022-08-14T18:41:21.102Z,943.93
2022-08-14T18:43:32.246Z,943.94
2022-08-14T18:44:32.174Z,943.98
2022-08-14T18:45:32.125Z,943.96
2022-08-14T18:46:59.808Z,943.95
2022-08-14T18:48:33.269Z,943.93
2022-08-14T18:49:33.450Z,943.93
2022-08-14T18:50:31.958Z,943.95
2022-08-14T18:51:45.518Z,943.98
2022-08-14T18:52:34.302Z,943.99
2022-08-14T18:53:34.387Z,943.96
2022-08-14T18:54:34.389Z,944.01
2022-08-14T18:55:31.913Z,944.03
2022-08-14T18:56:33.798Z,944.03
2022-08-14T18:57:40.263Z,944.02
2022-08-14T18:58:34.057Z,944.01
2022-08-14T18:59:42.366Z,944.02
2022-08-14T19:00:32.937Z,944.07
2022-08-14T19:01:32.071Z,944.03
2022-08-14T19:02:31.905Z,944.04
2022-08-14T19:03:32.031Z,944.06
2022-08-14T19:04:32.370Z,944.02
2022-08-14T19:05:47.644Z,944.03
2022-08-14T19:06:41.418Z,944.03
2022-08-14T19:07:48.062Z,944.05
2022-08-14T19:11:12.131Z,944.01
2022-08-14T19:13:44.507Z,944.03
2022-08-14T19:16:59.945Z,943.98
2022-08-14T19:18:13.864Z,943.94
2022-08-14T19:19:15.537Z,943.93
2022-08-14T19:21:14.403Z,943.94
2022-08-14T19:22:20.476Z,943.95
2022-08-14T19:23:12.384Z,943.97
2022-08-14T19:24:30.654Z,943.96
2022-08-14T19:26:51.981Z,943.96
2022-08-14T19:28:59.111Z,943.97
2022-08-14T19:29:59.068Z,943.95
2022-08-14T19:33:38.546Z,944.01
2022-08-14T19:35:55.939Z,944.00
2022-08-14T19:37:05.223Z,944.04
2022-08-14T19:37:41.423Z,944.09
2022-08-14T19:38:39.831Z,944.08
2022-08-14T19:39:53.468Z,944.10
2022-08-14T19:40:52.071Z,944.11
2022-08-14T19:42:54.502Z,944.14
2022-08-14T19:44:00.395Z,944.12
2022-08-14T19:44:53.044Z,944.15
2022-08-14T19:50:47.699Z,944.06
2022-08-14T19:57:37.910Z,944.11
2022-08-14T20:01:43.358Z,944.05
2022-08-14T20:05:42.953Z,944.02
2022-08-14T20:09:05.597Z,944.04
2022-08-14T20:13:53.954Z,944.08
2022-08-14T20:15:12.977Z,944.02
2022-08-14T20:16:02.684Z,944.05
2022-08-14T20:18:49.210Z,944.05
2022-08-14T20:19:17.722Z,944.02
2022-08-14T20:20:09.219Z,944.03
2022-08-14T20:21:09.211Z,944.08
2022-08-14T20:22:34.963Z,944.03
2022-08-14T20:23:19.793Z,944.00
2022-08-14T20:24:31.104Z,944.00
2022-08-14T20:25:19.324Z,943.99
2022-08-14T20:26:10.387Z,943.99
2022-08-14T20:27:20.296Z,944.02
2022-08-14T20:28:29.407Z,944.05
2022-08-14T20:29:10.321Z,944.07
2022-08-14T20:31:10.990Z,944.10
2022-08-14T20:32:15.642Z,944.06
2022-08-14T20:33:17.852Z,944.06
2022-08-14T20:34:35.401Z,944.03
2022-08-14T20:35:10.880Z,944.04
2022-08-14T20:36:26.483Z,944.05
2022-08-14T20:38:28.710Z,944.01
2022-08-14T20:41:36.844Z,943.97
2022-08-14T20:42:52.812Z,943.94
2022-08-14T20:43:35.963Z,943.96
2022-08-14T20:44:38.061Z,943.95
2022-08-14T20:45:45.486Z,943.94
2022-08-14T20:46:38.863Z,943.97
2022-08-14T20:47:50.507Z,943.95
2022-08-14T20:48:51.059Z,943.93
2022-08-14T20:51:01.693Z,943.93
2022-08-14T20:52:05.042Z,943.95
2022-08-14T20:53:06.127Z,943.91
2022-08-14T20:54:01.735Z,943.96
2022-08-14T20:55:01.782Z,943.96
2022-08-14T20:56:04.479Z,943.96
2022-08-14T20:57:02.583Z,943.96
2022-08-14T20:58:01.548Z,943.95
2022-08-14T20:59:15.556Z,943.95
2022-08-14T21:00:01.565Z,943.97
2022-08-14T21:01:13.708Z,943.97
2022-08-14T21:02:02.647Z,943.96
2022-08-14T21:03:01.664Z,944.01
2022-08-14T21:04:01.477Z,943.97
2022-08-14T21:05:01.394Z,943.94
2022-08-14T21:06:19.303Z,943.99
2022-08-14T21:07:24.794Z,943.97
2022-08-14T21:08:25.813Z,943.94
2022-08-14T21:09:01.564Z,943.90
2022-08-14T21:10:06.533Z,944.04
2022-08-14T21:11:02.378Z,944.00
2022-08-14T21:12:03.409Z,943.98
2022-08-14T21:14:18.688Z,944.01
2022-08-14T21:14:26.473Z,944.02
2022-08-14T21:15:02.288Z,943.98
2022-08-14T21:16:01.271Z,943.99
2022-08-14T21:17:02.287Z,943.94
2022-08-14T21:18:01.266Z,943.94
2022-08-14T21:19:01.977Z,943.95
2022-08-14T21:20:26.461Z,943.88
2022-08-14T21:21:01.348Z,943.87
2022-08-14T21:22:01.837Z,943.87
2022-08-14T21:23:01.767Z,943.84
2022-08-14T21:24:01.213Z,943.84
2022-08-14T21:25:07.474Z,943.85
2022-08-14T21:27:22.671Z,943.81
2022-08-14T21:29:53.816Z,943.78
2022-08-14T21:30:52.156Z,943.74
2022-08-14T21:32:59.845Z,943.71
2022-08-14T21:35:56.595Z,943.69
2022-08-14T21:37:14.184Z,943.66
2022-08-14T21:37:56.971Z,943.67
2022-08-14T21:38:56.711Z,943.68
2022-08-14T21:40:18.668Z,943.69
2022-08-14T21:42:37.254Z,943.59
2022-08-14T21:43:41.033Z,943.62
2022-08-14T21:44:50.857Z,943.63
2022-08-14T21:45:45.628Z,943.62
2022-08-14T21:46:51.370Z,943.61
2022-08-14T21:47:48.466Z,943.60
2022-08-14T21:48:45.857Z,943.66
2022-08-14T21:51:59.933Z,943.64
2022-08-14T21:53:00.790Z,943.62
2022-08-14T21:54:04.304Z,943.62
2022-08-14T21:55:10.198Z,943.62
2022-08-14T21:58:52.713Z,943.61
2022-08-14T21:59:32.119Z,943.62
2022-08-14T22:00:36.495Z,943.57
2022-08-14T22:02:00.773Z,943.57
2022-08-14T22:02:43.701Z,943.55
2022-08-14T22:03:35.557Z,943.54
2022-08-14T22:04:33.817Z,943.49
2022-08-14T22:05:43.688Z,943.48
2022-08-14T22:06:42.811Z,943.47
2022-08-14T22:07:42.497Z,943.46
2022-08-14T22:08:45.798Z,943.48
2022-08-14T22:09:44.081Z,943.47
2022-08-14T22:10:42.476Z,943.46
2022-08-14T22:14:26.179Z,943.49
2022-08-14T22:15:49.357Z,943.42
2022-08-14T22:17:00.576Z,943.42
2022-08-14T22:17:32.291Z,943.40
2022-08-14T22:18:33.662Z,943.41
2022-08-14T22:19:43.118Z,943.41
2022-08-14T22:20:29.052Z,943.37
2022-08-14T22:21:30.161Z,943.44
2022-08-14T22:23:43.598Z,943.35
2022-08-14T22:26:30.531Z,943.39
2022-08-14T22:28:44.886Z,943.36
2022-08-14T22:29:59.330Z,943.38
2022-08-14T22:30:42.827Z,943.36
2022-08-14T22:31:43.904Z,943.34
2022-08-14T22:32:56.653Z,943.30
2022-08-14T22:33:59.405Z,943.33
2022-08-14T22:34:45.731Z,943.36
2022-08-14T22:37:08.863Z,943.28
2022-08-14T22:38:36.341Z,943.28
2022-08-14T22:39:15.578Z,943.30
2022-08-14T22:41:01.343Z,943.29
2022-08-14T22:41:31.577Z,943.26
2022-08-14T22:42:21.571Z,943.25
2022-08-14T22:43:26.982Z,943.23
2022-08-14T22:44:08.478Z,943.21
2022-08-14T22:45:18.922Z,943.20
2022-08-14T22:46:27.139Z,943.24
2022-08-14T22:47:07.624Z,943.21
2022-08-14T22:51:13.538Z,943.13
2022-08-14T22:52:32.655Z,943.14
2022-08-14T22:54:53.114Z,943.10
2022-08-14T22:55:27.454Z,943.13
2022-08-14T22:56:49.589Z,943.10
2022-08-14T22:58:47.170Z,943.09
2022-08-14T23:00:25.444Z,943.05
2022-08-14T23:00:48.801Z,943.05
2022-08-14T23:01:56.108Z,943.03
2022-08-14T23:03:01.488Z,943.04
2022-08-14T23:03:48.133Z,943.01
2022-08-14T23:05:03.182Z,942.99
2022-08-14T23:05:56.832Z,943.04
2022-08-14T23:08:57.860Z,942.95
2022-08-14T23:09:41.208Z,943.03
2022-08-14T23:10:36.158Z,943.01
2022-08-14T23:11:39.473Z,942.94
2022-08-14T23:12:28.407Z,942.98
2022-08-14T23:13:25.316Z,942.93
2022-08-14T23:14:26.815Z,942.97
2022-08-14T23:15:24.871Z,942.95
2022-08-14T23:20:51.563Z,942.95
2022-08-14T23:22:03.817Z,942.94
2022-08-14T23:23:22.932Z,942.94
2022-08-14T23:24:03.977Z,942.93
2022-08-14T23:24:51.655Z,942.96
2022-08-14T23:28:34.846Z,942.90
2022-08-14T23:29:36.355Z,942.88
2022-08-14T23:30:31.458Z,942.95
2022-08-14T23:32:36.902Z,942.94
2022-08-14T23:33:36.872Z,942.95
2022-08-14T23:34:51.573Z,942.93
2022-08-14T23:37:06.097Z,942.92
2022-08-14T23:38:05.625Z,942.87
2022-08-14T23:39:19.473Z,942.85
2022-08-14T23:40:29.739Z,942.86
2022-08-14T23:41:19.715Z,942.82
2022-08-14T23:47:26.231Z,942.80
2022-08-14T23:48:36.137Z,942.71
2022-08-14T23:49:21.222Z,942.70
2022-08-14T23:50:38.113Z,942.72
2022-08-14T23:52:50.626Z,942.64
2022-08-14T23:53:54.082Z,942.64
2022-08-14T23:54:48.563Z,942.53
2022-08-14T23:55:57.427Z,942.54
2022-08-14T23:57:02.337Z,942.52
2022-08-14T23:58:01.816Z,942.49
2022-08-14T23:58:55.172Z,942.47
2022-08-14T23:59:54.373Z,942.43
